Elbow, Canada
Current Conditions -  °F | °C
As of 6:00 AM on Sunday 25 Jan 2015 (Local Time) from CYXE Reporting Station
Broken Clouds Broken Clouds  
Wind Chill: 20°   Ceiling: 11000
Heat Index: 28°   Visibility: 15mi
Dew Point: 25°   Wind: 9mph
Humidity: 86%   Direction: 200°SSW
Pressure: 29.86"   Gusts: NA
Location:  51.12°N, 106.6°W
Report Text: CYXE 251200Z 20008KT 15SM BKN110 M02/M04 A2986 RMK AC7 SLP139
Loading
Personal Weather Stations






























Interactive Weather Map New forecast layout! Learn more

10-Day Weather Forecast

Advertisements
Track Severe Weather on mobile